Ana Sayfa
METAR-TAF:

METAR-TAF

Havaalanları :

Lansing, Michigan, Amerika Birleşik Devletleri

Enlem: 42-46-49N, Boylam: 084-34-44W, yükseklik: 262 m

Güncel hava durumu gözlemi

Rapor saat 13:53 UTC de 18 dakika önce yapıldı.
Rüzgar doğudan 4 kt
Sıcaklık -2°C
Nem 80%
Basınç 1023 hPa
Görüş mesafesi: 16.1 km
3000 ft yükseklikte çok bulutlu

METAR: KLAN 291353Z 08004KT 10SM OVC030 M02/M05 A3021 RMK AO2 SLP242 T10171050

Saat: 09:11 (14:11 UTC)

Tahmin

Rapor saat 11:40 UTC de 2 saat ve 31 dakika önce yapıldı.
Ayın 29'si saat 12 UTC'den ayın 30'si saat 12 UTC'ye kadar geçerli Tahmin
Rüzgar değişken yönden 3 kt
Görüş mesafesi: 10 km
2800 ft yükseklikte çok bulutlu

TAF: KLAN 291140Z 2912/3012 VRB03KT P6SM OVC028

4.000'den fazla havaalanı için hava durumu gözlemleri ve tahminleri (METAR ve TAF raporları).

Kullanılabilir istasyonlar harita üzerinde sarı ve kırmızı noktalarla gösterilir.

İstasyonun adını görmek için fareyi noktanın üzerinde gezdirin.

Sonrasında hava gözlem ve tahminlerini görmek için tıklayın.

Haritayı değiştirmek için: yaklaştırmak için siyah artı işaretli yeşil düğmeye ve uzaklaştırmak için de eksi işaretli düğmeye hızla tıklayın; bitişik haritalar için yeşil okları kullanın.


METAR-TAF: